Terminal Aerodrome Forecast
Issued by NWS Norman, OK

Home | Current Version | Previous Version | Text Only | Print | Product List | Glossary On
Versions: 1 2 3 4 5 6 7 8 9 10 11 12 13 14 15 16 17 18 19 20 21 22 23 24 25 26 27 28 29 30 31 32 33 34
000
FTUS44 KOUN 290520
TAFOKC
TAF
KOKC 290520Z 2906/3006 08012KT P6SM SCT050 BKN180
     FM290800 09012KT 4SM -TSRA BR OVC040CB
     FM291200 09010KT 5SM -TSRA BR OVC012CB
     FM291900 12014KT P6SM BKN025
      TEMPO 2922/3002 2SM TSRA BR BKN008 OVC025CB
     FM300300 18013KT P6SM BKN035=

USA.gov is the U.S. government's official web portal to all federal, state and local government web resources and services.